createdAt,value
2022-10-11T00:02:26.373Z,4.25
2022-10-11T00:04:54.124Z,4.20
2022-10-11T00:07:22.929Z,4.03
2022-10-11T00:09:50.398Z,6.07
2022-10-11T00:12:17.870Z,4.50
2022-10-11T00:14:45.298Z,4.95
2022-10-11T00:17:12.694Z,4.63
2022-10-11T00:19:40.161Z,4.45
2022-10-11T00:22:07.743Z,3.88
2022-10-11T00:24:36.600Z,4.20
2022-10-11T00:27:04.246Z,4.32
2022-10-11T00:29:31.684Z,3.90
2022-10-11T00:31:59.351Z,4.35
2022-10-11T00:34:26.864Z,5.45
2022-10-11T00:36:54.377Z,4.05
2022-10-11T00:39:21.957Z,4.63
2022-10-11T00:41:50.742Z,3.78
2022-10-11T00:44:19.668Z,4.95
2022-10-11T00:46:54.987Z,3.80
2022-10-11T00:49:26.227Z,4.00
2022-10-11T00:51:55.967Z,7.35
2022-10-11T00:54:25.340Z,4.28
2022-10-11T00:56:57.157Z,5.55
2022-10-11T00:59:27.249Z,4.13
2022-10-11T01:01:54.697Z,5.00
2022-10-11T01:04:22.498Z,4.93
2022-10-11T01:06:50.404Z,4.22
2022-10-11T01:11:45.498Z,4.75
2022-10-11T01:14:30.600Z,4.45
2022-10-11T01:17:01.875Z,5.13
2022-10-11T01:19:39.415Z,4.78
2022-10-11T01:22:16.208Z,4.40
2022-10-11T01:24:51.641Z,5.68
2022-10-11T01:27:40.215Z,4.72
2022-10-11T01:30:25.267Z,5.32
2022-10-11T01:32:58.469Z,5.38
2022-10-11T01:35:27.936Z,5.75
2022-10-11T01:37:58.151Z,5.32
2022-10-11T01:40:28.149Z,4.72
2022-10-11T01:42:56.149Z,5.00
2022-10-11T01:45:25.484Z,4.90
2022-10-11T01:48:02.216Z,5.20
2022-10-11T01:50:33.851Z,4.47
2022-10-11T01:53:04.944Z,5.13
2022-10-11T01:55:38.314Z,5.22
2022-10-11T01:58:10.752Z,4.45
2022-10-11T02:00:45.883Z,4.28
2022-10-11T02:03:22.853Z,5.05
2022-10-11T02:05:52.688Z,5.67
2022-10-11T02:08:22.403Z,5.03
2022-10-11T02:10:52.886Z,4.00
2022-10-11T02:13:24.183Z,4.95
2022-10-11T02:15:54.139Z,4.15
2022-10-11T02:18:22.920Z,4.65
2022-10-11T02:20:51.309Z,3.83
2022-10-11T02:23:21.759Z,4.50
2022-10-11T02:25:50.078Z,4.80
2022-10-11T02:28:20.512Z,3.95
2022-10-11T02:30:49.195Z,5.22
2022-10-11T02:33:22.350Z,4.47
2022-10-11T02:35:54.293Z,4.45
2022-10-11T02:38:22.999Z,6.18
2022-10-11T02:40:55.975Z,6.53
2022-10-11T02:43:29.048Z,4.93
2022-10-11T02:45:58.821Z,4.60
2022-10-11T02:48:29.370Z,4.80
2022-10-11T02:50:57.254Z,4.60
2022-10-11T02:55:52.895Z,4.22
2022-10-11T02:58:20.597Z,4.85
2022-10-11T03:00:48.380Z,4.38
2022-10-11T03:03:15.868Z,4.90
2022-10-11T03:05:44.714Z,4.45
2022-10-11T03:08:14.196Z,5.07
2022-10-11T03:10:41.719Z,4.95
2022-10-11T03:13:09.284Z,4.22
2022-10-11T03:15:36.755Z,4.85
2022-10-11T03:18:04.621Z,4.03
2022-10-11T03:20:32.116Z,4.53
2022-10-11T03:23:00.988Z,4.05
2022-10-11T03:25:29.196Z,4.63
2022-10-11T03:27:56.626Z,4.82
2022-10-11T03:30:24.119Z,4.80
2022-10-11T03:32:51.564Z,5.72
2022-10-11T03:35:19.164Z,5.35
2022-10-11T03:37:46.648Z,5.55
2022-10-11T03:40:15.610Z,4.85
2022-10-11T03:42:43.103Z,4.57
2022-10-11T03:45:11.306Z,4.47
2022-10-11T03:47:39.390Z,5.05
2022-10-11T03:50:07.059Z,4.50
2022-10-11T03:52:34.563Z,4.95
2022-10-11T03:55:02.011Z,5.15
2022-10-11T03:57:30.826Z,4.15
2022-10-11T03:59:58.243Z,4.25
2022-10-11T04:02:25.742Z,5.93
2022-10-11T04:04:53.168Z,5.25
2022-10-11T04:07:20.748Z,5.40
2022-10-11T04:09:48.326Z,5.43
2022-10-11T04:12:15.821Z,5.25
2022-10-11T04:14:44.782Z,5.07
2022-10-11T04:17:12.268Z,5.22
2022-10-11T04:19:39.850Z,5.30
2022-10-11T04:22:07.452Z,4.85
2022-10-11T04:24:34.972Z,5.68
2022-10-11T04:27:02.507Z,4.97
2022-10-11T04:29:32.633Z,4.55
2022-10-11T04:32:01.728Z,5.28
2022-10-11T04:34:29.238Z,5.85
2022-10-11T04:36:56.752Z,5.07
2022-10-11T04:39:24.197Z,6.25
2022-10-11T04:41:51.624Z,5.78
2022-10-11T04:44:19.036Z,5.15
2022-10-11T04:46:46.454Z,4.93
2022-10-11T04:49:15.313Z,5.45
2022-10-11T04:51:42.797Z,5.28
2022-10-11T04:54:10.366Z,6.05
2022-10-11T04:56:37.806Z,6.30
2022-10-11T04:59:05.294Z,5.25
2022-10-11T05:01:32.726Z,6.43
2022-10-11T05:04:00.151Z,5.13
2022-10-11T05:06:28.955Z,5.32
2022-10-11T05:08:56.458Z,5.43
2022-10-11T05:11:23.917Z,8.13
2022-10-11T05:13:51.332Z,5.65
2022-10-11T05:16:18.793Z,4.80
2022-10-11T05:18:46.221Z,5.28
2022-10-11T05:21:16.446Z,6.18
2022-10-11T05:23:45.387Z,4.88
2022-10-11T05:26:12.848Z,6.20
2022-10-11T05:28:40.425Z,5.47
2022-10-11T05:31:08.162Z,6.30
2022-10-11T05:33:35.619Z,6.25
2022-10-11T05:36:03.538Z,5.70
2022-10-11T05:38:31.285Z,6.38
2022-10-11T05:41:01.713Z,5.55
2022-10-11T05:43:29.500Z,5.22
2022-10-11T05:45:57.230Z,5.80
2022-10-11T05:48:26.626Z,5.93
2022-10-11T05:50:54.372Z,6.93
2022-10-11T05:53:21.792Z,7.63
2022-10-11T05:55:49.250Z,6.60
2022-10-11T05:58:18.621Z,7.57
2022-10-11T06:00:46.067Z,6.80
2022-10-11T06:03:14.413Z,7.72
2022-10-11T06:05:42.175Z,7.25
2022-10-11T06:08:11.118Z,7.05
2022-10-11T06:10:39.098Z,7.43
2022-10-11T06:13:07.216Z,8.02
2022-10-11T06:15:35.983Z,7.47
2022-10-11T06:18:03.399Z,8.70
2022-10-11T06:20:30.910Z,7.93
2022-10-11T06:22:59.203Z,7.78
2022-10-11T06:25:26.646Z,7.07
2022-10-11T06:27:54.221Z,8.55
2022-10-11T06:30:21.810Z,7.70
2022-10-11T06:32:50.811Z,8.90
2022-10-11T06:35:18.441Z,8.88
2022-10-11T06:37:45.905Z,8.02
2022-10-11T06:40:13.444Z,7.95
2022-10-11T06:42:40.924Z,7.47
2022-10-11T06:45:08.770Z,8.63
2022-10-11T06:47:36.310Z,7.40
2022-10-11T06:50:06.253Z,8.05
2022-10-11T06:52:33.730Z,8.10
2022-10-11T06:55:01.126Z,9.18
2022-10-11T06:57:29.151Z,8.52
2022-10-11T06:59:57.181Z,7.60
2022-10-11T07:02:24.681Z,6.88
2022-10-11T07:04:52.085Z,7.38
2022-10-11T07:07:20.830Z,6.80
2022-10-11T07:09:48.291Z,7.43
2022-10-11T07:12:16.138Z,7.28
2022-10-11T07:14:43.598Z,7.55
2022-10-11T07:17:11.197Z,9.02
2022-10-11T07:19:38.622Z,7.60
2022-10-11T07:22:06.161Z,8.38
2022-10-11T07:24:34.967Z,8.75
2022-10-11T07:27:03.164Z,9.80
2022-10-11T07:29:30.656Z,9.98
2022-10-11T07:31:58.069Z,9.48
2022-10-11T07:34:25.528Z,10.65
2022-10-11T07:36:53.054Z,11.07
2022-10-11T07:39:20.558Z,13.07
2022-10-11T07:41:49.306Z,11.63
2022-10-11T07:44:16.739Z,12.02
2022-10-11T07:46:44.177Z,13.38
2022-10-11T07:49:11.589Z,13.38
2022-10-11T07:51:38.976Z,12.07
2022-10-11T07:54:07.562Z,13.30
2022-10-11T07:56:35.480Z,12.95
2022-10-11T07:59:04.790Z,15.18
2022-10-11T08:01:33.063Z,14.60
2022-10-11T08:04:00.786Z,14.57
2022-10-11T08:06:31.528Z,19.10
2022-10-11T08:09:00.349Z,16.35
2022-10-11T08:11:29.110Z,18.10
2022-10-11T08:13:56.640Z,16.77
2022-10-11T08:16:25.865Z,17.02
2022-10-11T08:18:54.388Z,16.25
2022-10-11T08:21:21.888Z,16.52
2022-10-11T08:26:17.013Z,16.13
2022-10-11T08:28:44.692Z,16.60
2022-10-11T08:31:13.295Z,15.15
2022-10-11T08:33:42.334Z,15.27
2022-10-11T08:36:10.774Z,15.02
2022-10-11T08:38:39.079Z,17.45
2022-10-11T08:41:15.330Z,14.75
2022-10-11T08:43:45.863Z,14.93
2022-10-11T08:46:15.158Z,12.55
2022-10-11T08:48:45.858Z,13.30
2022-10-11T08:51:16.344Z,12.88
2022-10-11T08:53:47.417Z,11.85
2022-10-11T08:56:16.032Z,13.57
2022-10-11T08:58:46.199Z,12.10
2022-10-11T09:01:17.723Z,12.85
2022-10-11T09:03:47.321Z,12.82
2022-10-11T09:06:18.493Z,10.45
2022-10-11T09:08:52.825Z,11.27
2022-10-11T09:11:26.390Z,9.32
2022-10-11T09:14:06.358Z,9.00
2022-10-11T09:16:42.541Z,7.63
2022-10-11T09:19:22.592Z,6.18
2022-10-11T09:21:53.102Z,7.13
2022-10-11T09:24:26.088Z,5.95
2022-10-11T09:26:56.320Z,5.53
2022-10-11T09:29:30.474Z,4.97
2022-10-11T09:31:59.202Z,7.80
2022-10-11T09:34:32.301Z,6.18
2022-10-11T09:37:05.262Z,5.55
2022-10-11T09:39:34.143Z,5.45
2022-10-11T09:42:02.772Z,5.05
2022-10-11T09:44:30.845Z,3.80
2022-10-11T09:46:58.445Z,4.03
2022-10-11T09:49:29.724Z,4.50
2022-10-11T09:51:59.756Z,4.65
2022-10-11T09:54:38.382Z,5.85
2022-10-11T09:57:06.021Z,4.70
2022-10-11T09:59:35.427Z,3.20
2022-10-11T10:02:22.073Z,3.13
2022-10-11T10:04:56.364Z,2.77
2022-10-11T10:07:25.349Z,2.88
2022-10-11T10:09:53.673Z,2.95
2022-10-11T10:12:22.825Z,2.85
2022-10-11T10:14:57.523Z,3.33
2022-10-11T10:17:24.975Z,3.95
2022-10-11T10:19:54.125Z,3.25
2022-10-11T10:22:23.707Z,3.00
2022-10-11T10:24:52.983Z,3.20
2022-10-11T10:27:22.062Z,2.55
2022-10-11T10:30:13.119Z,3.05
2022-10-11T10:32:48.320Z,2.92
2022-10-11T10:35:27.016Z,2.83
2022-10-11T10:37:59.675Z,3.83
2022-10-11T10:40:33.999Z,3.00
2022-10-11T10:43:01.423Z,3.80
2022-10-11T10:45:33.554Z,3.47
2022-10-11T10:48:09.401Z,3.13
2022-10-11T10:50:43.302Z,2.65
2022-10-11T10:53:19.416Z,3.35
2022-10-11T10:55:49.515Z,3.40
2022-10-11T10:58:24.960Z,3.53
2022-10-11T11:00:55.584Z,2.50
2022-10-11T11:03:25.050Z,3.55
2022-10-11T11:05:56.196Z,2.42
2022-10-11T11:08:32.688Z,3.40
2022-10-11T11:11:04.772Z,2.58
2022-10-11T11:13:36.976Z,2.63
2022-10-11T11:16:12.000Z,2.97
2022-10-11T11:18:42.426Z,2.67
2022-10-11T11:21:16.921Z,2.92
2022-10-11T11:23:49.431Z,3.72
2022-10-11T11:26:23.254Z,2.35
2022-10-11T11:28:58.241Z,2.95
2022-10-11T11:31:32.112Z,2.45
2022-10-11T11:34:03.292Z,2.65
2022-10-11T11:36:35.059Z,3.10
2022-10-11T11:39:03.444Z,2.17
2022-10-11T11:41:35.860Z,3.05
2022-10-11T11:44:05.980Z,4.60
2022-10-11T11:46:34.899Z,3.35
2022-10-11T11:49:03.782Z,5.25
2022-10-11T11:51:33.317Z,3.20
2022-10-11T11:54:06.203Z,3.15
2022-10-11T11:56:46.303Z,3.90
2022-10-11T11:59:17.890Z,2.33
2022-10-11T12:01:47.964Z,2.55
2022-10-11T12:04:20.195Z,3.15
2022-10-11T12:07:15.360Z,3.03
2022-10-11T12:09:44.417Z,2.83
2022-10-11T12:12:27.326Z,2.45
2022-10-11T12:15:03.461Z,2.53
2022-10-11T12:17:30.965Z,1.92
2022-10-11T12:20:19.500Z,3.08
2022-10-11T12:23:00.264Z,2.58
2022-10-11T12:25:33.902Z,2.72
2022-10-11T12:28:03.103Z,2.53
2022-10-11T12:30:50.735Z,2.85
2022-10-11T12:33:21.086Z,2.75
2022-10-11T12:35:51.388Z,3.05
2022-10-11T12:38:20.715Z,2.88
2022-10-11T12:40:49.028Z,2.20
2022-10-11T12:43:32.218Z,2.47
2022-10-11T12:46:14.570Z,2.40
2022-10-11T12:48:46.708Z,3.17
2022-10-11T12:51:28.988Z,2.28
2022-10-11T12:54:26.669Z,2.05
2022-10-11T12:57:00.416Z,1.98
2022-10-11T12:59:32.116Z,2.08
2022-10-11T13:02:00.458Z,3.38
2022-10-11T13:04:28.957Z,2.45
2022-10-11T13:07:01.116Z,2.47
2022-10-11T13:09:32.910Z,1.80
2022-10-11T13:12:04.060Z,2.03
2022-10-11T13:14:36.348Z,2.50
2022-10-11T13:17:08.757Z,1.83
2022-10-11T13:19:37.816Z,2.35
2022-10-11T13:22:06.298Z,2.38
2022-10-11T13:24:37.904Z,1.95
2022-10-11T13:27:06.008Z,1.95
2022-10-11T13:29:36.194Z,1.85
2022-10-11T13:32:06.051Z,2.10
2022-10-11T13:34:37.440Z,1.73
2022-10-11T13:37:05.123Z,1.80
2022-10-11T13:39:36.478Z,1.92
2022-10-11T13:42:04.464Z,2.38
2022-10-11T13:44:33.455Z,2.53
2022-10-11T13:47:02.976Z,2.42
2022-10-11T13:49:37.427Z,2.03
2022-10-11T13:52:07.463Z,2.05
2022-10-11T13:54:54.313Z,1.70
2022-10-11T13:59:49.188Z,2.28
2022-10-11T14:02:22.136Z,2.10
2022-10-11T14:04:50.217Z,2.83
2022-10-11T14:07:21.516Z,2.88
2022-10-11T14:09:49.173Z,2.78
2022-10-11T14:12:38.464Z,2.85
2022-10-11T14:15:08.085Z,2.70
2022-10-11T14:17:44.239Z,2.83
2022-10-11T14:20:17.873Z,1.80
2022-10-11T14:22:45.824Z,2.75
2022-10-11T14:25:14.519Z,1.73
2022-10-11T14:27:42.831Z,2.25
2022-10-11T14:30:26.244Z,2.78
2022-10-11T14:32:57.986Z,3.33
2022-10-11T14:35:32.473Z,2.65
2022-10-11T14:38:00.442Z,2.58
2022-10-11T14:40:29.102Z,2.58
2022-10-11T14:42:57.032Z,2.53
2022-10-11T14:45:25.026Z,2.33
2022-10-11T14:47:53.005Z,2.15
2022-10-11T14:50:27.551Z,2.25
2022-10-11T14:52:55.830Z,2.55
2022-10-11T14:55:23.761Z,2.22
2022-10-11T14:57:51.595Z,2.15
2022-10-11T15:00:22.490Z,1.95
2022-10-11T15:02:50.619Z,2.70
2022-10-11T15:05:18.524Z,2.20
2022-10-11T15:07:47.807Z,2.65
2022-10-11T15:10:20.360Z,2.45
2022-10-11T15:12:48.468Z,3.38
2022-10-11T15:15:20.529Z,2.72
2022-10-11T15:17:49.307Z,2.13
2022-10-11T15:20:22.186Z,2.60
2022-10-11T15:22:51.858Z,2.08
2022-10-11T15:25:20.050Z,2.75
2022-10-11T15:27:48.185Z,2.38
2022-10-11T15:30:17.532Z,2.22
2022-10-11T15:32:46.995Z,2.15
2022-10-11T15:35:15.464Z,2.33
2022-10-11T15:37:43.405Z,2.75
2022-10-11T15:42:41.430Z,2.95
2022-10-11T15:45:09.818Z,2.55
2022-10-11T15:47:37.686Z,2.45
2022-10-11T15:55:01.180Z,3.28
2022-10-11T16:02:26.129Z,4.78
2022-10-11T16:04:54.257Z,3.53
2022-10-11T16:07:22.357Z,4.40
2022-10-11T16:09:50.337Z,4.55
2022-10-11T16:14:47.306Z,3.45
2022-10-11T16:17:15.525Z,2.30
2022-10-11T16:19:44.862Z,3.42
2022-10-11T16:22:12.864Z,2.30
2022-10-11T16:27:08.988Z,2.80
2022-10-11T16:32:04.947Z,3.50
2022-10-11T16:34:33.465Z,2.65
2022-10-11T16:37:02.239Z,3.28
2022-10-11T16:39:29.667Z,3.50
2022-10-11T16:44:27.635Z,3.08
2022-10-11T16:46:55.709Z,2.80
2022-10-11T16:49:24.072Z,3.05
2022-10-11T16:51:52.294Z,3.58
2022-10-11T16:54:21.344Z,3.95
2022-10-11T16:56:48.929Z,3.15
2022-10-11T16:59:16.396Z,2.55
2022-10-11T17:01:44.969Z,3.78
2022-10-11T17:04:12.967Z,3.90
2022-10-11T17:09:08.495Z,3.80
2022-10-11T17:11:37.353Z,3.30
2022-10-11T17:14:05.788Z,3.42
2022-10-11T17:16:33.314Z,3.22
2022-10-11T17:19:00.694Z,3.10
2022-10-11T17:21:28.103Z,3.88
2022-10-11T17:23:55.472Z,4.32
2022-10-11T17:26:24.927Z,4.40
2022-10-11T17:28:53.917Z,3.30
2022-10-11T17:31:21.381Z,3.08
2022-10-11T17:33:48.839Z,3.88
2022-10-11T17:36:19.487Z,3.70
2022-10-11T17:38:46.921Z,4.22
2022-10-11T17:41:14.716Z,3.92
2022-10-11T17:43:42.145Z,3.40
2022-10-11T17:46:12.021Z,4.30
2022-10-11T17:48:39.901Z,3.67
2022-10-11T17:53:35.237Z,4.28
2022-10-11T17:56:04.987Z,5.78
2022-10-11T17:58:32.384Z,7.55
2022-10-11T18:01:02.156Z,7.65
2022-10-11T18:03:31.018Z,6.80
2022-10-11T18:05:58.519Z,6.75
2022-10-11T18:08:25.905Z,6.35
2022-10-11T18:10:53.297Z,7.57
2022-10-11T18:13:20.645Z,6.35
2022-10-11T18:15:52.713Z,7.10
2022-10-11T18:18:20.966Z,7.88
2022-10-11T18:20:50.076Z,6.60
2022-10-11T18:23:18.187Z,7.75
2022-10-11T18:25:45.658Z,7.68
2022-10-11T18:28:13.664Z,6.65
2022-10-11T18:33:08.338Z,7.10
2022-10-11T18:35:35.707Z,6.20
2022-10-11T18:38:04.568Z,7.57
2022-10-11T18:40:31.976Z,7.85
2022-10-11T18:42:59.361Z,7.90
2022-10-11T18:45:26.826Z,7.22
2022-10-11T18:47:54.225Z,7.03
2022-10-11T18:50:21.645Z,7.75
2022-10-11T18:52:49.725Z,8.98
2022-10-11T18:57:45.883Z,7.82
2022-10-11T19:00:37.793Z,9.15
2022-10-11T19:03:01.205Z,9.68
2022-10-11T19:05:28.578Z,10.48
2022-10-11T19:07:55.980Z,11.30
2022-10-11T19:10:23.343Z,12.80
2022-10-11T19:12:52.059Z,12.45
2022-10-11T19:15:19.540Z,12.98
2022-10-11T19:17:46.953Z,12.65
2022-10-11T19:20:14.317Z,13.07
2022-10-11T19:22:41.679Z,12.23
2022-10-11T19:25:09.219Z,11.70
2022-10-11T19:27:36.623Z,12.75
2022-10-11T19:30:05.815Z,12.45
2022-10-11T19:32:36.327Z,12.68
2022-10-11T19:35:03.742Z,12.45
2022-10-11T19:37:31.409Z,11.35
2022-10-11T19:39:58.946Z,11.35
2022-10-11T19:42:26.541Z,11.45
2022-10-11T19:44:53.908Z,12.18
2022-10-11T19:47:22.894Z,10.93
2022-10-11T19:49:50.292Z,10.57
2022-10-11T19:52:17.679Z,10.38
2022-10-11T19:54:45.257Z,11.13
2022-10-11T19:57:14.949Z,10.93
2022-10-11T19:59:42.651Z,10.55
2022-10-11T20:02:10.484Z,10.05
2022-10-11T20:04:52.006Z,9.13
2022-10-11T20:07:19.657Z,8.07
2022-10-11T20:09:47.051Z,9.00
2022-10-11T20:12:14.443Z,10.23
2022-10-11T20:14:41.816Z,8.25
2022-10-11T20:17:09.158Z,9.10
2022-10-11T20:19:36.537Z,7.68
2022-10-11T20:22:05.252Z,8.90
2022-10-11T20:24:34.232Z,8.63
2022-10-11T20:27:02.119Z,8.52
2022-10-11T20:29:29.454Z,8.75
2022-10-11T20:31:58.717Z,8.02
2022-10-11T20:34:27.094Z,9.45
2022-10-11T20:36:54.431Z,9.52
2022-10-11T20:39:23.595Z,9.07
2022-10-11T20:41:51.064Z,8.63
2022-10-11T20:44:18.527Z,9.38
2022-10-11T20:46:45.893Z,10.25
2022-10-11T20:49:13.360Z,9.32
2022-10-11T20:51:42.276Z,10.02
2022-10-11T20:54:09.952Z,9.93
2022-10-11T20:56:38.942Z,9.75
2022-10-11T20:59:07.865Z,10.32
2022-10-11T21:04:02.838Z,9.77
2022-10-11T21:06:31.059Z,9.23
2022-10-11T21:08:59.258Z,9.05
2022-10-11T21:11:27.109Z,9.35
2022-10-11T21:13:57.454Z,10.38
2022-10-11T21:16:24.835Z,9.75
2022-10-11T21:18:52.652Z,11.00
2022-10-11T21:21:20.353Z,10.32
2022-10-11T21:23:47.991Z,10.45
2022-10-11T21:26:17.837Z,10.50
2022-10-11T21:28:46.043Z,10.98
2022-10-11T21:31:15.695Z,11.90
2022-10-11T21:33:43.647Z,10.10
2022-10-11T21:38:38.266Z,10.40
2022-10-11T21:41:07.556Z,9.60
2022-10-11T21:43:35.634Z,10.82
2022-10-11T21:46:08.373Z,9.75
2022-10-11T21:48:37.064Z,9.68
2022-10-11T21:51:04.570Z,9.05
2022-10-11T21:53:31.968Z,10.05
2022-10-11T21:55:59.815Z,9.25
2022-10-11T21:58:27.392Z,10.02
2022-10-11T22:00:54.916Z,9.95
2022-10-11T22:03:22.304Z,9.80
2022-10-11T22:05:51.020Z,8.93
2022-10-11T22:08:18.895Z,8.93
2022-10-11T22:13:13.532Z,8.60
2022-10-11T22:15:40.936Z,8.55
2022-10-11T22:18:08.318Z,7.88
2022-10-11T22:20:35.693Z,8.60
2022-10-11T22:23:04.536Z,8.40
2022-10-11T22:25:31.891Z,8.55
2022-10-11T22:27:59.241Z,9.52
2022-10-11T22:30:26.637Z,8.68
2022-10-11T22:32:54.034Z,8.40
2022-10-11T22:35:21.519Z,9.27
2022-10-11T22:37:50.175Z,8.88
2022-10-11T22:40:18.932Z,9.50
2022-10-11T22:42:46.296Z,9.52
2022-10-11T22:45:13.741Z,9.80
2022-10-11T22:47:41.140Z,8.70
2022-10-11T22:50:08.848Z,9.60
2022-10-11T22:52:36.187Z,9.13
2022-10-11T22:55:03.549Z,8.10
2022-10-11T22:57:32.266Z,7.90
2022-10-11T22:59:59.653Z,7.55
2022-10-11T23:02:26.999Z,7.93
2022-10-11T23:04:54.445Z,7.88
2022-10-11T23:07:21.782Z,8.55
2022-10-11T23:09:49.172Z,7.65
2022-10-11T23:12:16.519Z,9.57
2022-10-11T23:14:45.244Z,8.65
2022-10-11T23:17:12.614Z,9.10
2022-10-11T23:19:39.975Z,8.27
2022-10-11T23:22:07.315Z,8.70
2022-10-11T23:24:34.670Z,8.68
2022-10-11T23:27:02.031Z,8.10
2022-10-11T23:29:30.392Z,8.88
2022-10-11T23:31:59.425Z,9.43
2022-10-11T23:34:26.917Z,7.72
2022-10-11T23:36:54.292Z,8.25
2022-10-11T23:39:21.775Z,8.20
2022-10-11T23:41:49.140Z,7.90
2022-10-11T23:44:16.509Z,8.48
2022-10-11T23:46:43.854Z,8.02
2022-10-11T23:49:12.539Z,8.80
2022-10-11T23:51:39.980Z,8.65
2022-10-11T23:54:07.448Z,8.75
2022-10-11T23:56:34.790Z,9.23
2022-10-11T23:59:02.151Z,8.55
